WetterOnline ( http://www.wetteronline.de )

Wetter aktuell Nittenau

Aktuelles Wetter: Regensburg/Oberhub (371m)

6-stündlich | Neueste Meldungen
Ortszeit Temperatur Wetter
Mi, 18.07. 14:00 28.7° C leicht bewölkt
Mi, 18.07. 8:00 18.8° C wolkenlos
Mi, 18.07. 2:00 18.8° C bewölkt
Di, 17.07. 20:00 20.7° C fast wolkenlos
Di, 17.07. 14:00 28.2° C leicht bewölkt
Di, 17.07. 8:00 15.3° C fast wolkenlos
Di, 17.07. 2:00 14.6° C bewölkt
Mo, 16.07. 20:00 20.9° C wolkig
Ortszeit Temperatur Wetter
Mi, 18.07. 14:00 28.7° C leicht bewölkt
Mi, 18.07. 13:50 28.7° C leicht bewölkt
Mi, 18.07. 13:40 28.7° C leicht bewölkt
Mi, 18.07. 13:30 28.0° C leicht bewölkt
Mi, 18.07. 13:20 28.0° C leicht bewölkt
Mi, 18.07. 13:10 28.0° C wolkig
Mi, 18.07. 13:00 27.7° C wolkig
Mi, 18.07. 12:30 28.0° C leicht bewölkt
Mi, 18.07. 12:00 25.8° C wolkig
Mi, 18.07. 11:30 27.2° C wolkenlos
Mi, 18.07. 11:00 26.0° C wolkenlos
Ortszeit Relative Feuchte Sichtweite
Mi, 18.07. 14:00 38% 35 km
Mi, 18.07. 8:00 70% 22 km
Mi, 18.07. 2:00 61% 40 km
Di, 17.07. 20:00 77% 35 km
Di, 17.07. 14:00 38% 30 km
Di, 17.07. 8:00 90% 16 km
Di, 17.07. 2:00 95% 9 km
Mo, 16.07. 20:00 57% 40 km
Ortszeit Relative Feuchte Sichtweite
Mi, 18.07. 14:00 38% 35 km
Mi, 18.07. 13:50 38% -
Mi, 18.07. 13:40 38% -
Mi, 18.07. 13:30 37% 26 km
Mi, 18.07. 13:20 37% -
Mi, 18.07. 13:10 40% -
Mi, 18.07. 13:00 39% 30 km
Mi, 18.07. 12:30 43% 26 km
Mi, 18.07. 12:00 43% 30 km
Mi, 18.07. 11:30 42% 19 km
Mi, 18.07. 11:00 44% 24 km
Ortszeit Niederschlagsmenge Niederschlagsart
Mi, 18.07. 14:00 0.0 l/m2 in 6 Std. -
Mi, 18.07. 8:00 0.0 l/m2 in 12 Std. -
Mi, 18.07. 2:00 0.0 l/m2 in 6 Std. -
Di, 17.07. 20:00 2 l/m2 in 12 Std. Regen
Di, 17.07. 14:00 0.0 l/m2 in 6 Std. -
Di, 17.07. 8:00 0.0 l/m2 in 12 Std. -
Di, 17.07. 2:00 0.0 l/m2 in 6 Std. -
Mo, 16.07. 20:00 17 l/m2 in 12 Std. Regenschauer
Ortszeit Niederschlagsmenge Niederschlagsart
Mi, 18.07. 14:00 0.0 l/m2 in 1 Std. -
Mi, 18.07. 13:50 keine Meldung -
Mi, 18.07. 13:40 keine Meldung -
Mi, 18.07. 13:30 0.0 l/m2 in 1 Std. -
Mi, 18.07. 13:20 keine Meldung -
Mi, 18.07. 13:10 keine Meldung -
Mi, 18.07. 13:00 0.0 l/m2 in 1 Std. -
Mi, 18.07. 12:30 0.0 l/m2 in 1 Std. -
Mi, 18.07. 12:00 0.0 l/m2 in 1 Std. -
Mi, 18.07. 11:30 0.0 l/m2 in 1 Std. -
Mi, 18.07. 11:00 0.0 l/m2 in 1 Std. -
Ortszeit Stärke Spitze Richtung
km/h Bft. km/h Grad Sektor
Mi, 18.07. 14:00 13 3 33 310° NW
Mi, 18.07. 8:00 0 0 11 - -
Mi, 18.07. 2:00 4 1 29 270° W
Di, 17.07. 20:00 4 1 40 190° S
Di, 17.07. 14:00 9 2 33 280° W
Di, 17.07. 8:00 0 0 11 - -
Di, 17.07. 2:00 4 1 11 10° N
Mo, 16.07. 20:00 7 2 25 30° NO
Ortszeit Stärke Spitze Richtung
km/h Bft. km/h Grad Sektor
Mi, 18.07. 14:00 13 3 33 310° NW
Mi, 18.07. 13:50 13 3 - 310° NW
Mi, 18.07. 13:40 13 3 - 310° NW
Mi, 18.07. 13:30 14 3 29 320° NW
Mi, 18.07. 13:20 14 3 - 320° NW
Mi, 18.07. 13:10 13 3 - 320° NW
Mi, 18.07. 13:00 13 3 30 280° W
Mi, 18.07. 12:30 9 2 30 290° W
Mi, 18.07. 12:00 13 3 26 320° NW
Mi, 18.07. 11:30 7 2 25 300° NW
Mi, 18.07. 11:00 9 2 22 320° NW
Ortszeit Untergrenze Bedeckung Gattung
total tief tief mittel hoch
Mi, 18.07. 14:00 2700 m 3/8 3/8 - - -
Mi, 18.07. 8:00 - 0/8 0/8 - - -
Mi, 18.07. 2:00 3000 m 7/8 7/8 - - -
Di, 17.07. 20:00 2700 m 1/8 - - - -
Di, 17.07. 14:00 2100 m 7/8 1/8 - - -
Di, 17.07. 8:00 9000 m 2/8 0/8 - - -
Di, 17.07. 2:00 2700 m 7/8 7/8 - - -
Mo, 16.07. 20:00 4200 m 7/8 7/8 - - -
Ortszeit Bedeckungsgrad in Achtel und Wolkenuntergrenze
Mi, 18.07. 14:00 3(2700m)
Mi, 18.07. 13:50 3(2700m)
Mi, 18.07. 13:40 4(2700m)
Mi, 18.07. 13:30 1(1800m) 4(3000m)
Mi, 18.07. 13:20 1(1800m) 4(3000m)
Mi, 18.07. 13:10 2(1800m) 6(2700m)
Mi, 18.07. 13:00 3(1800m) 5(2700m)
Mi, 18.07. 12:30 1(1800m) 3(2400m)
Mi, 18.07. 12:00 4(1800m) 5(2400m)
Mi, 18.07. 11:30 1(1500m)
Mi, 18.07. 11:00 keine Wolken
Ortszeit Luftdruck NN (hPa) Tendenz (hPa in 3 Std.)
Mi, 18.07. 14:00 1014 - 0,5
Mi, 18.07. 8:00 1016 + 1,0
Mi, 18.07. 2:00 1015 + 0,7
Di, 17.07. 20:00 1012 + 0,1
Di, 17.07. 14:00 1012 - 0,8
Di, 17.07. 8:00 1014 + 0,8
Di, 17.07. 2:00 1014 + 0,4
Mo, 16.07. 20:00 1011 - 1,0
Ortszeit Luftdruck NN (hPa) Tendenz (hPa in 3 Std.)
Mi, 18.07. 14:00 1014 - 0,5
Mi, 18.07. 13:50 1014 keine Meldung
Mi, 18.07. 13:40 1014 keine Meldung
Mi, 18.07. 13:30 1014 - 0,4
Mi, 18.07. 13:20 1014 keine Meldung
Mi, 18.07. 13:10 1014 keine Meldung
Mi, 18.07. 13:00 1014 - 0,4
Mi, 18.07. 12:30 1014 - 0,3
Mi, 18.07. 12:00 1015 - 0,2
Mi, 18.07. 11:30 1015 - 0,1
Mi, 18.07. 11:00 1015 + 0,2
Ortszeit Schneehöhe (cm)
Mi, 18.07. 14:00 -
Mi, 18.07. 8:00 -
Mi, 18.07. 2:00 -
Di, 17.07. 20:00 -
Di, 17.07. 14:00 -
Di, 17.07. 8:00 -
Di, 17.07. 2:00 -
Mo, 16.07. 20:00 -
Ortszeit Schneehöhe (cm)
Mi, 18.07. 14:00 -
Mi, 18.07. 13:50 -
Mi, 18.07. 13:40 -
Mi, 18.07. 13:30 -
Mi, 18.07. 13:20 -
Mi, 18.07. 13:10 -
Mi, 18.07. 13:00 -
Mi, 18.07. 12:30 -
Mi, 18.07. 12:00 -
Mi, 18.07. 11:30 -
Mi, 18.07. 11:00 -
Link zu dieser Seite / Seite empfehlen

Das Wetter in ...